sensor_id;sensor_type;location;lat;lon;timestamp;P1;durP1;ratioP1;P2;durP2;ratioP2
51358;SDS011;37448;51.588;7.248;2023-10-31T00:01:46;3.70;;;2.60;;
51358;SDS011;37448;51.588;7.248;2023-10-31T00:03:49;3.58;;;2.58;;
51358;SDS011;37448;51.588;7.248;2023-10-31T00:05:49;3.17;;;2.72;;
51358;SDS011;37448;51.588;7.248;2023-10-31T00:07:49;3.35;;;2.22;;
51358;SDS011;37448;51.588;7.248;2023-10-31T00:09:50;3.22;;;2.55;;
51358;SDS011;37448;51.588;7.248;2023-10-31T00:11:50;3.75;;;3.10;;
51358;SDS011;37448;51.588;7.248;2023-10-31T00:13:51;3.42;;;2.88;;
51358;SDS011;37448;51.588;7.248;2023-10-31T00:15:51;3.13;;;2.60;;
51358;SDS011;37448;51.588;7.248;2023-10-31T00:17:51;4.72;;;3.38;;
51358;SDS011;37448;51.588;7.248;2023-10-31T00:19:52;4.07;;;3.15;;
51358;SDS011;37448;51.588;7.248;2023-10-31T00:21:52;5.00;;;3.85;;
51358;SDS011;37448;51.588;7.248;2023-10-31T00:23:53;4.18;;;3.20;;
51358;SDS011;37448;51.588;7.248;2023-10-31T00:25:53;4.22;;;3.78;;
51358;SDS011;37448;51.588;7.248;2023-10-31T00:27:53;4.78;;;3.70;;
51358;SDS011;37448;51.588;7.248;2023-10-31T00:29:54;4.70;;;4.00;;
51358;SDS011;37448;51.588;7.248;2023-10-31T00:31:54;3.92;;;3.15;;
51358;SDS011;37448;51.588;7.248;2023-10-31T00:33:55;4.18;;;2.92;;
51358;SDS011;37448;51.588;7.248;2023-10-31T00:35:55;3.25;;;2.45;;
51358;SDS011;37448;51.588;7.248;2023-10-31T00:37:56;4.22;;;2.78;;
51358;SDS011;37448;51.588;7.248;2023-10-31T00:39:56;4.70;;;3.60;;
51358;SDS011;37448;51.588;7.248;2023-10-31T00:41:57;5.85;;;3.42;;
51358;SDS011;37448;51.588;7.248;2023-10-31T00:43:57;3.30;;;2.90;;
51358;SDS011;37448;51.588;7.248;2023-10-31T00:45:58;2.88;;;2.53;;
51358;SDS011;37448;51.588;7.248;2023-10-31T00:47:58;6.13;;;3.28;;
51358;SDS011;37448;51.588;7.248;2023-10-31T00:49:58;3.42;;;3.13;;
51358;SDS011;37448;51.588;7.248;2023-10-31T00:51:59;3.83;;;3.15;;
51358;SDS011;37448;51.588;7.248;2023-10-31T00:53:59;4.05;;;3.22;;
51358;SDS011;37448;51.588;7.248;2023-10-31T00:56:01;3.53;;;3.20;;
51358;SDS011;37448;51.588;7.248;2023-10-31T00:58:02;3.95;;;3.20;;
51358;SDS011;37448;51.588;7.248;2023-10-31T01:00:02;7.22;;;3.22;;
51358;SDS011;37448;51.588;7.248;2023-10-31T01:02:03;3.38;;;2.70;;
51358;SDS011;37448;51.588;7.248;2023-10-31T01:04:04;4.00;;;3.40;;
51358;SDS011;37448;51.588;7.248;2023-10-31T01:06:05;3.40;;;2.97;;
51358;SDS011;37448;51.588;7.248;2023-10-31T01:08:05;4.10;;;3.50;;
51358;SDS011;37448;51.588;7.248;2023-10-31T01:10:06;3.55;;;2.67;;
51358;SDS011;37448;51.588;7.248;2023-10-31T01:12:07;5.03;;;2.72;;
51358;SDS011;37448;51.588;7.248;2023-10-31T01:14:07;3.28;;;2.75;;
51358;SDS011;37448;51.588;7.248;2023-10-31T01:16:08;6.25;;;3.35;;
51358;SDS011;37448;51.588;7.248;2023-10-31T01:18:08;6.15;;;3.25;;
51358;SDS011;37448;51.588;7.248;2023-10-31T01:20:09;5.85;;;3.30;;
51358;SDS011;37448;51.588;7.248;2023-10-31T01:22:10;3.72;;;2.70;;
51358;SDS011;37448;51.588;7.248;2023-10-31T01:24:10;4.53;;;3.15;;
51358;SDS011;37448;51.588;7.248;2023-10-31T01:26:11;3.72;;;2.55;;
51358;SDS011;37448;51.588;7.248;2023-10-31T01:28:11;3.97;;;3.03;;
51358;SDS011;37448;51.588;7.248;2023-10-31T01:30:12;4.68;;;3.30;;
51358;SDS011;37448;51.588;7.248;2023-10-31T01:32:13;4.85;;;3.55;;
51358;SDS011;37448;51.588;7.248;2023-10-31T01:34:14;4.82;;;2.95;;
51358;SDS011;37448;51.588;7.248;2023-10-31T01:36:14;4.38;;;2.90;;
51358;SDS011;37448;51.588;7.248;2023-10-31T01:38:15;5.55;;;2.92;;
51358;SDS011;37448;51.588;7.248;2023-10-31T01:40:15;6.13;;;3.60;;
51358;SDS011;37448;51.588;7.248;2023-10-31T01:42:16;4.72;;;3.28;;
51358;SDS011;37448;51.588;7.248;2023-10-31T01:44:17;5.50;;;3.42;;
51358;SDS011;37448;51.588;7.248;2023-10-31T01:46:17;4.80;;;3.35;;
51358;SDS011;37448;51.588;7.248;2023-10-31T01:48:18;5.72;;;3.47;;
51358;SDS011;37448;51.588;7.248;2023-10-31T01:50:19;6.47;;;3.28;;
51358;SDS011;37448;51.588;7.248;2023-10-31T01:52:20;4.47;;;2.90;;
51358;SDS011;37448;51.588;7.248;2023-10-31T01:54:20;3.78;;;2.53;;
51358;SDS011;37448;51.588;7.248;2023-10-31T01:56:21;4.22;;;2.30;;
51358;SDS011;37448;51.588;7.248;2023-10-31T01:58:23;2.58;;;2.38;;
51358;SDS011;37448;51.588;7.248;2023-10-31T02:00:28;2.55;;;2.00;;
51358;SDS011;37448;51.588;7.248;2023-10-31T02:02:28;2.78;;;2.47;;
51358;SDS011;37448;51.588;7.248;2023-10-31T02:04:33;3.95;;;2.60;;
51358;SDS011;37448;51.588;7.248;2023-10-31T02:06:34;3.03;;;2.58;;
51358;SDS011;37448;51.588;7.248;2023-10-31T02:08:34;4.50;;;2.90;;
51358;SDS011;37448;51.588;7.248;2023-10-31T02:10:35;3.92;;;2.63;;
51358;SDS011;37448;51.588;7.248;2023-10-31T02:12:36;3.28;;;2.38;;
51358;SDS011;37448;51.588;7.248;2023-10-31T02:14:37;2.83;;;2.30;;
51358;SDS011;37448;51.588;7.248;2023-10-31T02:16:37;3.08;;;2.10;;
51358;SDS011;37448;51.588;7.248;2023-10-31T02:18:39;3.20;;;2.63;;
51358;SDS011;37448;51.588;7.248;2023-10-31T02:20:39;2.92;;;2.50;;
51358;SDS011;37448;51.588;7.248;2023-10-31T02:22:40;5.63;;;3.33;;
51358;SDS011;37448;51.588;7.248;2023-10-31T02:24:41;4.88;;;2.67;;
51358;SDS011;37448;51.588;7.248;2023-10-31T02:26:41;4.95;;;2.45;;
51358;SDS011;37448;51.588;7.248;2023-10-31T02:28:42;6.03;;;2.88;;
51358;SDS011;37448;51.588;7.248;2023-10-31T02:30:42;6.72;;;2.63;;
51358;SDS011;37448;51.588;7.248;2023-10-31T02:32:43;3.90;;;2.83;;
51358;SDS011;37448;51.588;7.248;2023-10-31T02:34:46;4.97;;;2.90;;
51358;SDS011;37448;51.588;7.248;2023-10-31T02:36:47;4.40;;;2.88;;
51358;SDS011;37448;51.588;7.248;2023-10-31T02:38:49;3.17;;;2.50;;
51358;SDS011;37448;51.588;7.248;2023-10-31T02:40:50;4.43;;;3.35;;
51358;SDS011;37448;51.588;7.248;2023-10-31T02:42:50;4.20;;;3.35;;
51358;SDS011;37448;51.588;7.248;2023-10-31T02:44:51;5.32;;;3.50;;
51358;SDS011;37448;51.588;7.248;2023-10-31T02:46:51;6.53;;;4.15;;
51358;SDS011;37448;51.588;7.248;2023-10-31T02:48:51;7.32;;;4.18;;
51358;SDS011;37448;51.588;7.248;2023-10-31T02:50:52;6.90;;;4.50;;
51358;SDS011;37448;51.588;7.248;2023-10-31T02:52:52;6.95;;;4.35;;
51358;SDS011;37448;51.588;7.248;2023-10-31T02:54:53;8.57;;;5.20;;
51358;SDS011;37448;51.588;7.248;2023-10-31T02:56:53;7.13;;;4.93;;
51358;SDS011;37448;51.588;7.248;2023-10-31T02:58:53;8.35;;;6.00;;
51358;SDS011;37448;51.588;7.248;2023-10-31T03:00:54;8.73;;;5.88;;
51358;SDS011;37448;51.588;7.248;2023-10-31T03:02:55;10.32;;;6.28;;
51358;SDS011;37448;51.588;7.248;2023-10-31T03:04:55;10.65;;;6.68;;
51358;SDS011;37448;51.588;7.248;2023-10-31T03:06:56;11.07;;;7.28;;
51358;SDS011;37448;51.588;7.248;2023-10-31T03:08:57;10.20;;;6.13;;
51358;SDS011;37448;51.588;7.248;2023-10-31T03:10:57;10.65;;;6.90;;
51358;SDS011;37448;51.588;7.248;2023-10-31T03:12:58;13.07;;;6.43;;
51358;SDS011;37448;51.588;7.248;2023-10-31T03:14:59;9.10;;;6.30;;
51358;SDS011;37448;51.588;7.248;2023-10-31T03:16:59;9.00;;;5.57;;
51358;SDS011;37448;51.588;7.248;2023-10-31T03:19:00;8.05;;;5.80;;
51358;SDS011;37448;51.588;7.248;2023-10-31T03:21:00;10.18;;;6.60;;
51358;SDS011;37448;51.588;7.248;2023-10-31T03:23:01;9.30;;;6.38;;
51358;SDS011;37448;51.588;7.248;2023-10-31T03:25:01;10.88;;;6.28;;
51358;SDS011;37448;51.588;7.248;2023-10-31T03:27:02;11.70;;;6.43;;
51358;SDS011;37448;51.588;7.248;2023-10-31T03:29:03;10.57;;;6.53;;
51358;SDS011;37448;51.588;7.248;2023-10-31T03:31:03;9.82;;;5.85;;
51358;SDS011;37448;51.588;7.248;2023-10-31T03:33:04;8.73;;;6.15;;
51358;SDS011;37448;51.588;7.248;2023-10-31T03:35:05;11.63;;;6.90;;
51358;SDS011;37448;51.588;7.248;2023-10-31T03:37:06;11.77;;;7.35;;
51358;SDS011;37448;51.588;7.248;2023-10-31T03:39:07;9.15;;;6.55;;
51358;SDS011;37448;51.588;7.248;2023-10-31T03:41:07;13.27;;;7.95;;
51358;SDS011;37448;51.588;7.248;2023-10-31T03:43:08;14.13;;;8.10;;
51358;SDS011;37448;51.588;7.248;2023-10-31T03:45:08;15.35;;;8.38;;
51358;SDS011;37448;51.588;7.248;2023-10-31T03:47:09;10.77;;;7.10;;
51358;SDS011;37448;51.588;7.248;2023-10-31T03:49:10;12.82;;;7.40;;
51358;SDS011;37448;51.588;7.248;2023-10-31T03:51:10;11.75;;;7.55;;
51358;SDS011;37448;51.588;7.248;2023-10-31T03:53:10;11.95;;;7.30;;
51358;SDS011;37448;51.588;7.248;2023-10-31T03:55:11;16.17;;;8.25;;
51358;SDS011;37448;51.588;7.248;2023-10-31T03:57:11;13.40;;;7.72;;
51358;SDS011;37448;51.588;7.248;2023-10-31T03:59:12;12.50;;;8.13;;
51358;SDS011;37448;51.588;7.248;2023-10-31T04:01:12;14.18;;;8.55;;
51358;SDS011;37448;51.588;7.248;2023-10-31T04:03:13;15.65;;;8.27;;
51358;SDS011;37448;51.588;7.248;2023-10-31T04:05:13;14.98;;;8.55;;
51358;SDS011;37448;51.588;7.248;2023-10-31T04:07:13;16.88;;;7.90;;
51358;SDS011;37448;51.588;7.248;2023-10-31T04:09:14;10.63;;;7.22;;
51358;SDS011;37448;51.588;7.248;2023-10-31T04:11:14;13.77;;;7.65;;
51358;SDS011;37448;51.588;7.248;2023-10-31T04:13:15;12.05;;;7.72;;
51358;SDS011;37448;51.588;7.248;2023-10-31T04:15:15;19.05;;;7.07;;
51358;SDS011;37448;51.588;7.248;2023-10-31T04:17:16;15.20;;;7.93;;
51358;SDS011;37448;51.588;7.248;2023-10-31T04:19:16;12.65;;;7.00;;
51358;SDS011;37448;51.588;7.248;2023-10-31T04:21:16;12.18;;;6.28;;
51358;SDS011;37448;51.588;7.248;2023-10-31T04:23:17;13.13;;;7.28;;
51358;SDS011;37448;51.588;7.248;2023-10-31T04:25:17;11.60;;;6.57;;
51358;SDS011;37448;51.588;7.248;2023-10-31T04:27:17;11.40;;;6.05;;
51358;SDS011;37448;51.588;7.248;2023-10-31T04:29:18;11.05;;;5.97;;
51358;SDS011;37448;51.588;7.248;2023-10-31T04:31:18;10.73;;;5.40;;
51358;SDS011;37448;51.588;7.248;2023-10-31T04:33:19;9.40;;;5.30;;
51358;SDS011;37448;51.588;7.248;2023-10-31T04:35:19;8.90;;;5.55;;
51358;SDS011;37448;51.588;7.248;2023-10-31T04:37:19;9.10;;;5.53;;
51358;SDS011;37448;51.588;7.248;2023-10-31T04:39:20;8.23;;;5.30;;
51358;SDS011;37448;51.588;7.248;2023-10-31T04:41:20;8.85;;;4.90;;
51358;SDS011;37448;51.588;7.248;2023-10-31T04:43:21;8.45;;;6.10;;
51358;SDS011;37448;51.588;7.248;2023-10-31T04:45:21;8.95;;;4.93;;
51358;SDS011;37448;51.588;7.248;2023-10-31T04:47:21;8.38;;;4.57;;
51358;SDS011;37448;51.588;7.248;2023-10-31T04:49:22;8.35;;;5.38;;
51358;SDS011;37448;51.588;7.248;2023-10-31T04:51:22;9.85;;;5.22;;
51358;SDS011;37448;51.588;7.248;2023-10-31T04:53:22;9.70;;;5.15;;
51358;SDS011;37448;51.588;7.248;2023-10-31T04:55:23;8.45;;;5.15;;
51358;SDS011;37448;51.588;7.248;2023-10-31T04:57:23;9.05;;;5.43;;
51358;SDS011;37448;51.588;7.248;2023-10-31T04:59:24;9.35;;;5.47;;
51358;SDS011;37448;51.588;7.248;2023-10-31T05:01:24;9.57;;;4.93;;
51358;SDS011;37448;51.588;7.248;2023-10-31T05:03:25;7.97;;;4.65;;
51358;SDS011;37448;51.588;7.248;2023-10-31T05:05:25;10.18;;;5.00;;
51358;SDS011;37448;51.588;7.248;2023-10-31T05:07:26;12.30;;;5.30;;
51358;SDS011;37448;51.588;7.248;2023-10-31T05:09:26;7.35;;;5.22;;
51358;SDS011;37448;51.588;7.248;2023-10-31T05:11:26;9.77;;;5.38;;
51358;SDS011;37448;51.588;7.248;2023-10-31T05:13:27;7.50;;;5.22;;
51358;SDS011;37448;51.588;7.248;2023-10-31T05:15:27;9.45;;;6.15;;
51358;SDS011;37448;51.588;7.248;2023-10-31T05:17:28;7.00;;;5.07;;
51358;SDS011;37448;51.588;7.248;2023-10-31T05:19:28;10.32;;;6.22;;
51358;SDS011;37448;51.588;7.248;2023-10-31T05:21:29;7.72;;;4.90;;
51358;SDS011;37448;51.588;7.248;2023-10-31T05:23:29;10.85;;;5.90;;
51358;SDS011;37448;51.588;7.248;2023-10-31T05:25:30;9.73;;;5.75;;
51358;SDS011;37448;51.588;7.248;2023-10-31T05:27:31;10.40;;;6.18;;
51358;SDS011;37448;51.588;7.248;2023-10-31T05:29:31;10.73;;;6.20;;
51358;SDS011;37448;51.588;7.248;2023-10-31T05:31:32;11.38;;;6.50;;
51358;SDS011;37448;51.588;7.248;2023-10-31T05:33:33;9.88;;;5.88;;
51358;SDS011;37448;51.588;7.248;2023-10-31T05:35:33;12.45;;;8.00;;
51358;SDS011;37448;51.588;7.248;2023-10-31T05:37:34;11.80;;;7.32;;
51358;SDS011;37448;51.588;7.248;2023-10-31T05:39:34;11.82;;;7.00;;
51358;SDS011;37448;51.588;7.248;2023-10-31T05:41:36;12.45;;;7.47;;
51358;SDS011;37448;51.588;7.248;2023-10-31T05:43:37;12.30;;;6.70;;
51358;SDS011;37448;51.588;7.248;2023-10-31T05:45:37;12.80;;;6.10;;
51358;SDS011;37448;51.588;7.248;2023-10-31T05:47:37;11.32;;;6.57;;
51358;SDS011;37448;51.588;7.248;2023-10-31T05:49:38;10.40;;;6.45;;
51358;SDS011;37448;51.588;7.248;2023-10-31T05:51:38;11.40;;;5.80;;
51358;SDS011;37448;51.588;7.248;2023-10-31T05:53:39;8.93;;;5.85;;
51358;SDS011;37448;51.588;7.248;2023-10-31T05:55:39;8.80;;;5.18;;
51358;SDS011;37448;51.588;7.248;2023-10-31T05:57:40;10.48;;;5.43;;
51358;SDS011;37448;51.588;7.248;2023-10-31T05:59:41;11.05;;;5.50;;
51358;SDS011;37448;51.588;7.248;2023-10-31T06:01:41;9.40;;;5.10;;
51358;SDS011;37448;51.588;7.248;2023-10-31T06:03:42;10.88;;;5.38;;
51358;SDS011;37448;51.588;7.248;2023-10-31T06:05:46;9.70;;;5.80;;
51358;SDS011;37448;51.588;7.248;2023-10-31T06:07:46;11.88;;;6.00;;
51358;SDS011;37448;51.588;7.248;2023-10-31T06:09:46;12.70;;;6.13;;
51358;SDS011;37448;51.588;7.248;2023-10-31T06:11:47;10.88;;;5.85;;
51358;SDS011;37448;51.588;7.248;2023-10-31T06:13:47;11.50;;;6.97;;
51358;SDS011;37448;51.588;7.248;2023-10-31T06:15:48;12.75;;;7.15;;
51358;SDS011;37448;51.588;7.248;2023-10-31T06:17:48;10.80;;;5.80;;
51358;SDS011;37448;51.588;7.248;2023-10-31T06:19:49;10.90;;;6.47;;
51358;SDS011;37448;51.588;7.248;2023-10-31T06:21:49;10.63;;;6.25;;
51358;SDS011;37448;51.588;7.248;2023-10-31T06:23:49;14.23;;;7.43;;
51358;SDS011;37448;51.588;7.248;2023-10-31T06:25:50;14.55;;;6.57;;
51358;SDS011;37448;51.588;7.248;2023-10-31T06:27:51;11.18;;;6.75;;
51358;SDS011;37448;51.588;7.248;2023-10-31T06:29:51;12.00;;;6.60;;
51358;SDS011;37448;51.588;7.248;2023-10-31T06:31:52;13.07;;;7.38;;
51358;SDS011;37448;51.588;7.248;2023-10-31T06:33:53;13.23;;;7.90;;
51358;SDS011;37448;51.588;7.248;2023-10-31T06:35:53;11.90;;;7.53;;
51358;SDS011;37448;51.588;7.248;2023-10-31T06:37:54;15.90;;;7.93;;
51358;SDS011;37448;51.588;7.248;2023-10-31T06:39:57;13.57;;;7.72;;
51358;SDS011;37448;51.588;7.248;2023-10-31T06:41:57;12.93;;;7.22;;
51358;SDS011;37448;51.588;7.248;2023-10-31T06:43:57;17.40;;;8.75;;
51358;SDS011;37448;51.588;7.248;2023-10-31T06:45:58;13.70;;;8.05;;
51358;SDS011;37448;51.588;7.248;2023-10-31T06:48:00;14.80;;;8.95;;
51358;SDS011;37448;51.588;7.248;2023-10-31T06:50:01;11.70;;;7.43;;
51358;SDS011;37448;51.588;7.248;2023-10-31T06:52:03;13.02;;;8.32;;
51358;SDS011;37448;51.588;7.248;2023-10-31T06:54:04;13.25;;;8.15;;
51358;SDS011;37448;51.588;7.248;2023-10-31T06:56:05;13.05;;;7.45;;
51358;SDS011;37448;51.588;7.248;2023-10-31T06:58:05;15.40;;;8.63;;
51358;SDS011;37448;51.588;7.248;2023-10-31T07:00:06;17.55;;;9.02;;
51358;SDS011;37448;51.588;7.248;2023-10-31T07:02:08;16.65;;;8.48;;
51358;SDS011;37448;51.588;7.248;2023-10-31T07:04:09;16.52;;;9.20;;
51358;SDS011;37448;51.588;7.248;2023-10-31T07:06:09;17.67;;;9.45;;
51358;SDS011;37448;51.588;7.248;2023-10-31T07:08:10;16.10;;;9.15;;
51358;SDS011;37448;51.588;7.248;2023-10-31T07:10:10;16.23;;;8.90;;
51358;SDS011;37448;51.588;7.248;2023-10-31T07:12:10;16.40;;;9.68;;
51358;SDS011;37448;51.588;7.248;2023-10-31T07:14:11;16.48;;;8.90;;
51358;SDS011;37448;51.588;7.248;2023-10-31T07:16:11;14.13;;;8.02;;
51358;SDS011;37448;51.588;7.248;2023-10-31T07:18:12;15.23;;;8.57;;
51358;SDS011;37448;51.588;7.248;2023-10-31T07:20:12;15.98;;;8.77;;
51358;SDS011;37448;51.588;7.248;2023-10-31T07:22:13;15.93;;;9.57;;
51358;SDS011;37448;51.588;7.248;2023-10-31T07:24:13;17.65;;;9.30;;
51358;SDS011;37448;51.588;7.248;2023-10-31T07:26:13;14.65;;;8.18;;
51358;SDS011;37448;51.588;7.248;2023-10-31T07:28:14;15.02;;;7.47;;
51358;SDS011;37448;51.588;7.248;2023-10-31T07:30:14;15.02;;;7.95;;
51358;SDS011;37448;51.588;7.248;2023-10-31T07:32:15;14.30;;;8.13;;
51358;SDS011;37448;51.588;7.248;2023-10-31T07:34:15;12.65;;;7.78;;
51358;SDS011;37448;51.588;7.248;2023-10-31T07:36:16;10.85;;;7.38;;
51358;SDS011;37448;51.588;7.248;2023-10-31T07:38:16;13.40;;;8.13;;
51358;SDS011;37448;51.588;7.248;2023-10-31T07:40:16;11.90;;;7.05;;
51358;SDS011;37448;51.588;7.248;2023-10-31T07:42:17;12.95;;;6.88;;
51358;SDS011;37448;51.588;7.248;2023-10-31T07:44:17;13.07;;;7.25;;
51358;SDS011;37448;51.588;7.248;2023-10-31T07:46:18;17.05;;;7.65;;
51358;SDS011;37448;51.588;7.248;2023-10-31T07:48:19;17.80;;;8.30;;
51358;SDS011;37448;51.588;7.248;2023-10-31T07:50:19;13.75;;;7.30;;
51358;SDS011;37448;51.588;7.248;2023-10-31T07:52:19;11.75;;;7.75;;
51358;SDS011;37448;51.588;7.248;2023-10-31T07:54:20;13.40;;;8.02;;
51358;SDS011;37448;51.588;7.248;2023-10-31T07:56:21;13.95;;;8.25;;
51358;SDS011;37448;51.588;7.248;2023-10-31T07:58:23;12.30;;;7.68;;
51358;SDS011;37448;51.588;7.248;2023-10-31T08:00:23;13.68;;;8.10;;
51358;SDS011;37448;51.588;7.248;2023-10-31T08:02:23;13.93;;;8.30;;
51358;SDS011;37448;51.588;7.248;2023-10-31T08:04:24;12.57;;;7.25;;
51358;SDS011;37448;51.588;7.248;2023-10-31T08:06:25;12.82;;;7.38;;
51358;SDS011;37448;51.588;7.248;2023-10-31T08:08:25;10.98;;;6.75;;
51358;SDS011;37448;51.588;7.248;2023-10-31T08:10:26;8.05;;;5.72;;
51358;SDS011;37448;51.588;7.248;2023-10-31T08:12:26;7.72;;;5.60;;
51358;SDS011;37448;51.588;7.248;2023-10-31T08:14:26;9.07;;;5.50;;
51358;SDS011;37448;51.588;7.248;2023-10-31T08:16:27;7.70;;;5.30;;
51358;SDS011;37448;51.588;7.248;2023-10-31T08:18:28;6.72;;;4.82;;
51358;SDS011;37448;51.588;7.248;2023-10-31T08:20:28;8.98;;;5.78;;
51358;SDS011;37448;51.588;7.248;2023-10-31T08:22:33;8.75;;;6.78;;
51358;SDS011;37448;51.588;7.248;2023-10-31T08:24:33;9.65;;;6.00;;
51358;SDS011;37448;51.588;7.248;2023-10-31T08:26:36;10.10;;;6.03;;
51358;SDS011;37448;51.588;7.248;2023-10-31T08:28:36;11.80;;;6.28;;
51358;SDS011;37448;51.588;7.248;2023-10-31T08:30:37;9.43;;;6.07;;
51358;SDS011;37448;51.588;7.248;2023-10-31T08:32:38;8.90;;;6.32;;
51358;SDS011;37448;51.588;7.248;2023-10-31T08:34:39;11.13;;;7.00;;
51358;SDS011;37448;51.588;7.248;2023-10-31T08:36:39;12.23;;;7.50;;
51358;SDS011;37448;51.588;7.248;2023-10-31T08:38:39;11.57;;;7.25;;
51358;SDS011;37448;51.588;7.248;2023-10-31T08:40:41;11.00;;;7.30;;
51358;SDS011;37448;51.588;7.248;2023-10-31T08:42:41;10.45;;;7.28;;
51358;SDS011;37448;51.588;7.248;2023-10-31T08:44:43;13.00;;;8.25;;
51358;SDS011;37448;51.588;7.248;2023-10-31T08:46:43;11.15;;;7.53;;
51358;SDS011;37448;51.588;7.248;2023-10-31T08:48:44;12.82;;;8.75;;
51358;SDS011;37448;51.588;7.248;2023-10-31T08:50:44;12.10;;;7.82;;
51358;SDS011;37448;51.588;7.248;2023-10-31T08:52:45;10.80;;;7.57;;
51358;SDS011;37448;51.588;7.248;2023-10-31T08:54:45;10.90;;;8.35;;
51358;SDS011;37448;51.588;7.248;2023-10-31T08:56:45;10.10;;;7.05;;
51358;SDS011;37448;51.588;7.248;2023-10-31T08:58:46;13.25;;;7.93;;
51358;SDS011;37448;51.588;7.248;2023-10-31T09:00:46;11.90;;;7.90;;
51358;SDS011;37448;51.588;7.248;2023-10-31T09:02:47;11.50;;;7.70;;
51358;SDS011;37448;51.588;7.248;2023-10-31T09:04:47;13.57;;;8.15;;
51358;SDS011;37448;51.588;7.248;2023-10-31T09:06:48;10.75;;;7.60;;
51358;SDS011;37448;51.588;7.248;2023-10-31T09:08:48;11.30;;;7.47;;
51358;SDS011;37448;51.588;7.248;2023-10-31T09:10:48;8.00;;;6.90;;
51358;SDS011;37448;51.588;7.248;2023-10-31T09:12:49;9.38;;;6.80;;
51358;SDS011;37448;51.588;7.248;2023-10-31T09:14:49;12.18;;;7.13;;
51358;SDS011;37448;51.588;7.248;2023-10-31T09:16:50;10.75;;;7.72;;
51358;SDS011;37448;51.588;7.248;2023-10-31T09:18:50;9.88;;;7.40;;
51358;SDS011;37448;51.588;7.248;2023-10-31T09:20:52;10.10;;;6.47;;
51358;SDS011;37448;51.588;7.248;2023-10-31T09:22:52;11.00;;;8.15;;
51358;SDS011;37448;51.588;7.248;2023-10-31T09:24:53;13.80;;;8.55;;
51358;SDS011;37448;51.588;7.248;2023-10-31T09:26:53;12.18;;;8.68;;
51358;SDS011;37448;51.588;7.248;2023-10-31T09:28:53;17.17;;;8.48;;
51358;SDS011;37448;51.588;7.248;2023-10-31T09:30:55;13.35;;;8.48;;
51358;SDS011;37448;51.588;7.248;2023-10-31T09:32:56;12.98;;;7.95;;
51358;SDS011;37448;51.588;7.248;2023-10-31T09:34:56;12.00;;;7.72;;
51358;SDS011;37448;51.588;7.248;2023-10-31T09:36:57;13.30;;;7.70;;
51358;SDS011;37448;51.588;7.248;2023-10-31T09:38:58;12.48;;;8.02;;
51358;SDS011;37448;51.588;7.248;2023-10-31T09:40:58;13.38;;;8.90;;
51358;SDS011;37448;51.588;7.248;2023-10-31T09:42:59;12.90;;;8.07;;
51358;SDS011;37448;51.588;7.248;2023-10-31T09:44:59;11.25;;;8.45;;
51358;SDS011;37448;51.588;7.248;2023-10-31T09:47:00;12.68;;;8.73;;
51358;SDS011;37448;51.588;7.248;2023-10-31T09:49:01;13.32;;;7.95;;
51358;SDS011;37448;51.588;7.248;2023-10-31T09:51:02;10.27;;;7.45;;
51358;SDS011;37448;51.588;7.248;2023-10-31T09:53:05;13.27;;;8.52;;
51358;SDS011;37448;51.588;7.248;2023-10-31T09:55:06;13.20;;;8.10;;
51358;SDS011;37448;51.588;7.248;2023-10-31T09:57:07;12.20;;;7.32;;
51358;SDS011;37448;51.588;7.248;2023-10-31T09:59:09;11.20;;;7.53;;
51358;SDS011;37448;51.588;7.248;2023-10-31T10:01:09;11.38;;;7.93;;
51358;SDS011;37448;51.588;7.248;2023-10-31T10:03:11;13.43;;;7.80;;
51358;SDS011;37448;51.588;7.248;2023-10-31T10:05:12;11.57;;;7.25;;
51358;SDS011;37448;51.588;7.248;2023-10-31T10:07:16;10.90;;;7.40;;
51358;SDS011;37448;51.588;7.248;2023-10-31T10:09:18;8.70;;;7.07;;
51358;SDS011;37448;51.588;7.248;2023-10-31T10:11:18;9.07;;;6.45;;
51358;SDS011;37448;51.588;7.248;2023-10-31T10:13:22;14.60;;;7.18;;
51358;SDS011;37448;51.588;7.248;2023-10-31T10:15:22;8.85;;;6.53;;
51358;SDS011;37448;51.588;7.248;2023-10-31T10:17:23;8.38;;;6.00;;
51358;SDS011;37448;51.588;7.248;2023-10-31T10:19:24;11.82;;;7.05;;
51358;SDS011;37448;51.588;7.248;2023-10-31T10:21:26;7.95;;;5.95;;
51358;SDS011;37448;51.588;7.248;2023-10-31T10:23:26;12.50;;;6.63;;
51358;SDS011;37448;51.588;7.248;2023-10-31T10:25:27;11.82;;;5.85;;
51358;SDS011;37448;51.588;7.248;2023-10-31T10:27:27;7.80;;;5.93;;
51358;SDS011;37448;51.588;7.248;2023-10-31T10:29:28;7.88;;;5.43;;
51358;SDS011;37448;51.588;7.248;2023-10-31T10:31:28;9.52;;;6.50;;
51358;SDS011;37448;51.588;7.248;2023-10-31T10:33:29;10.27;;;6.55;;
51358;SDS011;37448;51.588;7.248;2023-10-31T10:35:29;9.13;;;5.57;;
51358;SDS011;37448;51.588;7.248;2023-10-31T10:37:29;8.32;;;5.53;;
51358;SDS011;37448;51.588;7.248;2023-10-31T10:39:31;10.15;;;6.72;;
51358;SDS011;37448;51.588;7.248;2023-10-31T10:41:34;10.15;;;6.00;;
51358;SDS011;37448;51.588;7.248;2023-10-31T10:43:36;11.45;;;6.05;;
51358;SDS011;37448;51.588;7.248;2023-10-31T10:45:41;8.50;;;5.78;;
51358;SDS011;37448;51.588;7.248;2023-10-31T10:47:48;8.65;;;5.05;;
51358;SDS011;37448;51.588;7.248;2023-10-31T10:49:49;10.82;;;6.22;;
51358;SDS011;37448;51.588;7.248;2023-10-31T10:54:19;10.35;;;5.95;;
51358;SDS011;37448;51.588;7.248;2023-10-31T10:56:33;8.15;;;5.30;;
51358;SDS011;37448;51.588;7.248;2023-10-31T10:59:28;11.27;;;5.53;;
51358;SDS011;37448;51.588;7.248;2023-10-31T11:01:03;12.80;;;6.07;;
51358;SDS011;37448;51.588;7.248;2023-10-31T11:03:04;7.70;;;5.63;;
51358;SDS011;37448;51.588;7.248;2023-10-31T11:05:07;12.35;;;5.90;;
51358;SDS011;37448;51.588;7.248;2023-10-31T11:07:08;8.85;;;5.82;;
51358;SDS011;37448;51.588;7.248;2023-10-31T11:09:09;9.07;;;5.75;;
51358;SDS011;37448;51.588;7.248;2023-10-31T11:11:13;11.27;;;6.18;;
51358;SDS011;37448;51.588;7.248;2023-10-31T11:13:16;9.77;;;6.10;;
51358;SDS011;37448;51.588;7.248;2023-10-31T11:15:17;12.80;;;6.55;;
51358;SDS011;37448;51.588;7.248;2023-10-31T11:17:28;8.50;;;5.60;;
51358;SDS011;37448;51.588;7.248;2023-10-31T11:19:31;12.00;;;6.35;;
51358;SDS011;37448;51.588;7.248;2023-10-31T11:21:33;9.27;;;5.80;;
51358;SDS011;37448;51.588;7.248;2023-10-31T11:23:35;10.02;;;5.63;;
51358;SDS011;37448;51.588;7.248;2023-10-31T11:25:36;7.55;;;4.70;;
51358;SDS011;37448;51.588;7.248;2023-10-31T11:27:43;8.02;;;5.28;;
51358;SDS011;37448;51.588;7.248;2023-10-31T11:29:44;10.57;;;5.95;;
51358;SDS011;37448;51.588;7.248;2023-10-31T11:31:44;10.38;;;5.32;;
51358;SDS011;37448;51.588;7.248;2023-10-31T11:33:46;9.77;;;5.40;;
51358;SDS011;37448;51.588;7.248;2023-10-31T11:35:51;9.90;;;5.82;;
51358;SDS011;37448;51.588;7.248;2023-10-31T11:42:19;7.40;;;4.68;;
51358;SDS011;37448;51.588;7.248;2023-10-31T11:44:25;9.10;;;5.32;;
51358;SDS011;37448;51.588;7.248;2023-10-31T11:46:26;8.52;;;4.70;;
51358;SDS011;37448;51.588;7.248;2023-10-31T11:48:48;7.05;;;4.47;;
51358;SDS011;37448;51.588;7.248;2023-10-31T11:50:52;9.25;;;5.18;;
51358;SDS011;37448;51.588;7.248;2023-10-31T11:55:08;8.07;;;4.85;;
51358;SDS011;37448;51.588;7.248;2023-10-31T11:57:10;8.57;;;5.65;;
51358;SDS011;37448;51.588;7.248;2023-10-31T11:59:11;6.50;;;4.78;;
51358;SDS011;37448;51.588;7.248;2023-10-31T12:01:11;6.72;;;4.45;;
51358;SDS011;37448;51.588;7.248;2023-10-31T12:03:11;7.70;;;4.35;;
51358;SDS011;37448;51.588;7.248;2023-10-31T12:05:12;7.85;;;4.32;;
51358;SDS011;37448;51.588;7.248;2023-10-31T12:07:14;11.63;;;4.70;;
51358;SDS011;37448;51.588;7.248;2023-10-31T12:09:15;6.07;;;3.70;;
51358;SDS011;37448;51.588;7.248;2023-10-31T12:13:22;7.10;;;3.60;;
51358;SDS011;37448;51.588;7.248;2023-10-31T12:15:22;8.13;;;3.50;;